Whidbey Island Naval Air Station /Ault Field/ Airport
KNUW : now visible

Airfield :











YOU CAN JOIN US ON...

 
LOGIN :

Register | Disclaimer

   EN    FR    IT 

 









Legend :    VFR   Marginal VFR   IFR   Intensive IFR   Very Intensive IFR
Visi :
Ceiling :
>= 8 km
>= 3000ft
5 to 8 km
1000 to 3000 ft
1500m to 5 km
500 to 1000 ft
800 to 1500m
200 to 500 ft
< 800m
< 200 ft
Symbols :   Thunderstorms  Fog  Heavy snow  Heavy precipitations  Wind > 20 kt







- Airport Elevation : 47 ft


KNUW - Whidbey Island Naval Air Station /Ault Field/

CURRENT METAR :
  • 181156Z 11004KT 10SM BKN033 BKN047 OVC085 15/11 A2983 RMK AO2 SLP101 T01500111 10167 20139 53010 $

EXPIRED METARs :
  • 181056Z 12003KT 10SM FEW012 BKN030 OVC110 14/11 A2982 RMK AO2 SLP097 T01440106 $
  • 180956Z 00000KT 10SM FEW015 BKN032 BKN110 OVC160 14/11 A2981 RMK AO2 SLP094 T01440111 $
  • 180856Z 13005KT 10SM FEW016 SCT027 BKN080 BKN160 BKN250 15/11 A2980 RMK AO2 SLP091 T01500111 53008 $

TAF AMD TAF KNUW
Valid from the 18 at 09:00 until the 19 at 07:00 UTC


1809/1907 VRB06KT 9999 VCSH SCT015 BKN035 OVC050 650509 651409 550006 552209 QNH2973INS
TEMPO 1809/1814 13008KT 6000 SHRA BR BKN015 OVC025
FM181400 VRB06KT 8000 BR VCSH SCT008 BKN015 OVC050 650509 651404 550004 QNH2980INS
TEMPO 1814/1820 26007KT 3200 SHRA BR OVC008
BECMG 1820/1821 27008KT 9999 SCT009 BKN020 OVC050 650707 550004 QNH2991INS
TEMPO 1821/1901 VRB06KT FEW009 SCT015 BKN035
FM190100 VRB06KT 9999 FEW015 SCT030 SCT060 650705 550004 532009 QNH2993INS
TEMPO 1901/1907 8000 BR SCT015 BKN025 BKN050 T11/1813Z T19/1823Z AMD 0938 FS30118
No reported NOTAMs for that airfield.



MET'MAP, your aeronautical weather chart ! - Copyright ORBIFLY December 2007 - Disclaimer

ORBIFLY MET'MAP TEAM :

Programming & Development : Alexandra Zaïnal
Concept & Development : Baudouin d'Aumeries
Co-Development & Prog : Marc-Olivier Méhu
Technical & hardware support : Manuel Goepfert

Contact : metmap@orbifly.com




SOURCES & CREDITS :

   NOAA       Earth
Advisory